sensor_id;sensor_type;location;lat;lon;timestamp;P1;durP1;ratioP1;P2;durP2;ratioP2
35290;SDS011;21411;50.024;19.220;2023-06-10T00:02:10;21.80;;;19.80;;
35290;SDS011;21411;50.024;19.220;2023-06-10T00:04:36;22.80;;;20.70;;
35290;SDS011;21411;50.024;19.220;2023-06-10T00:07:03;21.60;;;19.70;;
35290;SDS011;21411;50.024;19.220;2023-06-10T00:09:35;19.90;;;18.10;;
35290;SDS011;21411;50.024;19.220;2023-06-10T00:12:06;21.30;;;19.10;;
35290;SDS011;21411;50.024;19.220;2023-06-10T00:14:37;20.50;;;18.60;;
35290;SDS011;21411;50.024;19.220;2023-06-10T00:17:05;21.30;;;19.20;;
35290;SDS011;21411;50.024;19.220;2023-06-10T00:19:36;20.70;;;18.60;;
35290;SDS011;21411;50.024;19.220;2023-06-10T00:22:07;19.90;;;18.20;;
35290;SDS011;21411;50.024;19.220;2023-06-10T00:24:35;20.50;;;18.40;;
35290;SDS011;21411;50.024;19.220;2023-06-10T00:27:02;19.50;;;17.80;;
35290;SDS011;21411;50.024;19.220;2023-06-10T00:29:29;20.50;;;18.50;;
35290;SDS011;21411;50.024;19.220;2023-06-10T00:31:56;22.10;;;20.00;;
35290;SDS011;21411;50.024;19.220;2023-06-10T00:34:23;22.80;;;20.70;;
35290;SDS011;21411;50.024;19.220;2023-06-10T00:36:51;23.20;;;21.10;;
35290;SDS011;21411;50.024;19.220;2023-06-10T00:39:17;25.90;;;23.60;;
35290;SDS011;21411;50.024;19.220;2023-06-10T00:41:44;26.20;;;23.80;;
35290;SDS011;21411;50.024;19.220;2023-06-10T00:44:10;26.00;;;23.60;;
35290;SDS011;21411;50.024;19.220;2023-06-10T00:46:37;26.10;;;23.70;;
35290;SDS011;21411;50.024;19.220;2023-06-10T00:49:03;27.20;;;24.40;;
35290;SDS011;21411;50.024;19.220;2023-06-10T00:51:30;25.90;;;23.60;;
35290;SDS011;21411;50.024;19.220;2023-06-10T00:53:57;27.90;;;25.40;;
35290;SDS011;21411;50.024;19.220;2023-06-10T00:56:23;28.30;;;25.70;;
35290;SDS011;21411;50.024;19.220;2023-06-10T00:58:51;28.20;;;25.50;;
35290;SDS011;21411;50.024;19.220;2023-06-10T01:01:18;29.20;;;26.40;;
35290;SDS011;21411;50.024;19.220;2023-06-10T01:03:46;28.50;;;25.80;;
35290;SDS011;21411;50.024;19.220;2023-06-10T01:06:36;26.80;;;24.50;;
35290;SDS011;21411;50.024;19.220;2023-06-10T01:09:17;28.20;;;25.70;;
35290;SDS011;21411;50.024;19.220;2023-06-10T01:11:50;29.10;;;26.50;;
35290;SDS011;21411;50.024;19.220;2023-06-10T01:14:24;28.30;;;25.80;;
35290;SDS011;21411;50.024;19.220;2023-06-10T01:16:51;31.70;;;29.00;;
35290;SDS011;21411;50.024;19.220;2023-06-10T01:19:19;31.20;;;28.40;;
35290;SDS011;21411;50.024;19.220;2023-06-10T01:21:45;29.60;;;27.00;;
35290;SDS011;21411;50.024;19.220;2023-06-10T01:24:15;30.70;;;27.80;;
35290;SDS011;21411;50.024;19.220;2023-06-10T01:26:44;29.70;;;27.30;;
35290;SDS011;21411;50.024;19.220;2023-06-10T01:29:28;31.50;;;28.60;;
35290;SDS011;21411;50.024;19.220;2023-06-10T01:32:06;32.00;;;29.10;;
35290;SDS011;21411;50.024;19.220;2023-06-10T01:34:38;30.70;;;28.00;;
35290;SDS011;21411;50.024;19.220;2023-06-10T01:37:08;32.20;;;29.20;;
35290;SDS011;21411;50.024;19.220;2023-06-10T01:39:38;31.70;;;28.70;;
35290;SDS011;21411;50.024;19.220;2023-06-10T01:42:05;31.20;;;28.40;;
35290;SDS011;21411;50.024;19.220;2023-06-10T01:44:32;30.80;;;28.00;;
35290;SDS011;21411;50.024;19.220;2023-06-10T01:46:59;30.20;;;27.50;;
35290;SDS011;21411;50.024;19.220;2023-06-10T01:49:25;31.30;;;28.50;;
35290;SDS011;21411;50.024;19.220;2023-06-10T01:51:52;30.80;;;28.10;;
35290;SDS011;21411;50.024;19.220;2023-06-10T01:54:19;30.80;;;28.10;;
35290;SDS011;21411;50.024;19.220;2023-06-10T01:56:45;31.10;;;28.20;;
35290;SDS011;21411;50.024;19.220;2023-06-10T01:59:12;31.20;;;28.60;;
35290;SDS011;21411;50.024;19.220;2023-06-10T02:01:38;30.80;;;28.00;;
35290;SDS011;21411;50.024;19.220;2023-06-10T02:04:05;28.90;;;26.30;;
35290;SDS011;21411;50.024;19.220;2023-06-10T02:06:31;30.10;;;27.60;;
35290;SDS011;21411;50.024;19.220;2023-06-10T02:08:58;32.20;;;29.30;;
35290;SDS011;21411;50.024;19.220;2023-06-10T02:11:24;31.40;;;28.50;;
35290;SDS011;21411;50.024;19.220;2023-06-10T02:13:52;30.50;;;27.80;;
35290;SDS011;21411;50.024;19.220;2023-06-10T02:16:19;31.40;;;28.70;;
35290;SDS011;21411;50.024;19.220;2023-06-10T02:18:47;32.70;;;29.80;;
35290;SDS011;21411;50.024;19.220;2023-06-10T02:21:14;31.60;;;28.90;;
35290;SDS011;21411;50.024;19.220;2023-06-10T02:23:41;30.60;;;27.90;;
35290;SDS011;21411;50.024;19.220;2023-06-10T02:26:07;30.90;;;28.20;;
35290;SDS011;21411;50.024;19.220;2023-06-10T02:28:34;31.10;;;28.60;;
35290;SDS011;21411;50.024;19.220;2023-06-10T02:31:00;28.30;;;26.00;;
35290;SDS011;21411;50.024;19.220;2023-06-10T02:33:27;29.90;;;27.30;;
35290;SDS011;21411;50.024;19.220;2023-06-10T02:35:54;30.80;;;28.00;;
35290;SDS011;21411;50.024;19.220;2023-06-10T02:38:21;31.80;;;29.00;;
35290;SDS011;21411;50.024;19.220;2023-06-10T02:40:48;32.30;;;29.50;;
35290;SDS011;21411;50.024;19.220;2023-06-10T02:43:15;31.30;;;28.60;;
35290;SDS011;21411;50.024;19.220;2023-06-10T02:45:41;33.00;;;30.10;;
35290;SDS011;21411;50.024;19.220;2023-06-10T02:48:08;31.60;;;28.80;;
35290;SDS011;21411;50.024;19.220;2023-06-10T02:50:34;31.40;;;28.60;;
35290;SDS011;21411;50.024;19.220;2023-06-10T02:53:01;31.70;;;28.90;;
35290;SDS011;21411;50.024;19.220;2023-06-10T02:55:27;30.50;;;28.00;;
35290;SDS011;21411;50.024;19.220;2023-06-10T02:57:55;32.20;;;29.30;;
35290;SDS011;21411;50.024;19.220;2023-06-10T03:00:22;31.20;;;28.50;;
35290;SDS011;21411;50.024;19.220;2023-06-10T03:02:48;30.90;;;28.00;;
35290;SDS011;21411;50.024;19.220;2023-06-10T03:05:15;31.20;;;28.30;;
35290;SDS011;21411;50.024;19.220;2023-06-10T03:07:43;30.70;;;28.10;;
35290;SDS011;21411;50.024;19.220;2023-06-10T03:10:09;32.40;;;29.20;;
35290;SDS011;21411;50.024;19.220;2023-06-10T03:12:36;33.90;;;30.90;;
35290;SDS011;21411;50.024;19.220;2023-06-10T03:15:02;34.90;;;31.90;;
35290;SDS011;21411;50.024;19.220;2023-06-10T03:17:30;34.20;;;31.00;;
35290;SDS011;21411;50.024;19.220;2023-06-10T03:19:56;34.50;;;31.60;;
35290;SDS011;21411;50.024;19.220;2023-06-10T03:22:22;32.80;;;29.90;;
35290;SDS011;21411;50.024;19.220;2023-06-10T03:24:49;32.80;;;29.80;;
35290;SDS011;21411;50.024;19.220;2023-06-10T03:27:17;33.90;;;31.10;;
35290;SDS011;21411;50.024;19.220;2023-06-10T03:29:43;34.50;;;31.40;;
35290;SDS011;21411;50.024;19.220;2023-06-10T03:32:10;33.40;;;30.40;;
35290;SDS011;21411;50.024;19.220;2023-06-10T03:34:37;33.50;;;30.70;;
35290;SDS011;21411;50.024;19.220;2023-06-10T03:37:04;33.90;;;30.90;;
35290;SDS011;21411;50.024;19.220;2023-06-10T03:39:31;31.80;;;29.30;;
35290;SDS011;21411;50.024;19.220;2023-06-10T03:41:58;31.60;;;28.90;;
35290;SDS011;21411;50.024;19.220;2023-06-10T03:44:24;32.60;;;29.70;;
35290;SDS011;21411;50.024;19.220;2023-06-10T03:46:54;32.40;;;29.60;;
35290;SDS011;21411;50.024;19.220;2023-06-10T03:49:21;31.90;;;29.00;;
35290;SDS011;21411;50.024;19.220;2023-06-10T03:51:53;31.10;;;28.50;;
35290;SDS011;21411;50.024;19.220;2023-06-10T03:54:20;31.90;;;29.10;;
35290;SDS011;21411;50.024;19.220;2023-06-10T03:56:46;32.20;;;29.50;;
35290;SDS011;21411;50.024;19.220;2023-06-10T03:59:14;31.70;;;29.00;;
35290;SDS011;21411;50.024;19.220;2023-06-10T04:01:41;32.30;;;29.50;;
35290;SDS011;21411;50.024;19.220;2023-06-10T04:04:07;32.20;;;29.50;;
35290;SDS011;21411;50.024;19.220;2023-06-10T04:06:34;31.10;;;28.10;;
35290;SDS011;21411;50.024;19.220;2023-06-10T04:09:00;32.60;;;29.90;;
35290;SDS011;21411;50.024;19.220;2023-06-10T04:11:27;33.70;;;30.70;;
35290;SDS011;21411;50.024;19.220;2023-06-10T04:13:53;32.80;;;30.00;;
35290;SDS011;21411;50.024;19.220;2023-06-10T04:16:20;32.30;;;29.50;;
35290;SDS011;21411;50.024;19.220;2023-06-10T04:18:47;33.20;;;30.50;;
35290;SDS011;21411;50.024;19.220;2023-06-10T04:21:14;31.40;;;28.70;;
35290;SDS011;21411;50.024;19.220;2023-06-10T04:23:40;32.60;;;29.70;;
35290;SDS011;21411;50.024;19.220;2023-06-10T04:26:07;32.80;;;30.00;;
35290;SDS011;21411;50.024;19.220;2023-06-10T04:28:33;32.00;;;29.10;;
35290;SDS011;21411;50.024;19.220;2023-06-10T04:31:00;32.80;;;29.80;;
35290;SDS011;21411;50.024;19.220;2023-06-10T04:33:28;31.00;;;28.50;;
35290;SDS011;21411;50.024;19.220;2023-06-10T04:35:54;31.60;;;29.00;;
35290;SDS011;21411;50.024;19.220;2023-06-10T04:38:21;30.20;;;27.70;;
35290;SDS011;21411;50.024;19.220;2023-06-10T04:40:47;30.10;;;27.50;;
35290;SDS011;21411;50.024;19.220;2023-06-10T04:43:14;32.00;;;29.20;;
35290;SDS011;21411;50.024;19.220;2023-06-10T04:45:40;31.80;;;29.10;;
35290;SDS011;21411;50.024;19.220;2023-06-10T04:48:10;29.90;;;27.40;;
35290;SDS011;21411;50.024;19.220;2023-06-10T04:50:37;31.90;;;29.20;;
35290;SDS011;21411;50.024;19.220;2023-06-10T04:53:05;30.60;;;28.10;;
35290;SDS011;21411;50.024;19.220;2023-06-10T04:55:32;29.00;;;26.50;;
35290;SDS011;21411;50.024;19.220;2023-06-10T04:58:00;29.90;;;27.30;;
35290;SDS011;21411;50.024;19.220;2023-06-10T05:00:26;28.70;;;26.10;;
35290;SDS011;21411;50.024;19.220;2023-06-10T05:02:53;28.60;;;26.30;;
35290;SDS011;21411;50.024;19.220;2023-06-10T05:05:20;28.00;;;25.60;;
35290;SDS011;21411;50.024;19.220;2023-06-10T05:07:46;28.60;;;26.20;;
35290;SDS011;21411;50.024;19.220;2023-06-10T05:10:13;29.10;;;26.60;;
35290;SDS011;21411;50.024;19.220;2023-06-10T05:12:39;29.20;;;26.70;;
35290;SDS011;21411;50.024;19.220;2023-06-10T05:15:07;28.60;;;26.30;;
35290;SDS011;21411;50.024;19.220;2023-06-10T05:17:34;29.40;;;26.90;;
35290;SDS011;21411;50.024;19.220;2023-06-10T05:20:03;29.00;;;26.40;;
35290;SDS011;21411;50.024;19.220;2023-06-10T05:22:30;28.10;;;25.70;;
35290;SDS011;21411;50.024;19.220;2023-06-10T05:24:56;27.40;;;25.10;;
35290;SDS011;21411;50.024;19.220;2023-06-10T05:27:23;24.80;;;22.70;;
35290;SDS011;21411;50.024;19.220;2023-06-10T05:29:50;25.20;;;23.00;;
35290;SDS011;21411;50.024;19.220;2023-06-10T05:32:18;25.40;;;23.30;;
35290;SDS011;21411;50.024;19.220;2023-06-10T05:34:44;25.40;;;23.20;;
35290;SDS011;21411;50.024;19.220;2023-06-10T05:37:12;23.20;;;21.20;;
35290;SDS011;21411;50.024;19.220;2023-06-10T05:39:38;22.70;;;20.60;;
35290;SDS011;21411;50.024;19.220;2023-06-10T05:42:06;22.80;;;20.70;;
35290;SDS011;21411;50.024;19.220;2023-06-10T05:44:34;22.70;;;20.30;;
35290;SDS011;21411;50.024;19.220;2023-06-10T05:47:00;20.40;;;18.60;;
35290;SDS011;21411;50.024;19.220;2023-06-10T05:49:27;19.60;;;17.90;;
35290;SDS011;21411;50.024;19.220;2023-06-10T05:51:53;19.60;;;18.00;;
35290;SDS011;21411;50.024;19.220;2023-06-10T05:54:22;18.20;;;16.30;;
35290;SDS011;21411;50.024;19.220;2023-06-10T05:56:48;19.70;;;17.80;;
35290;SDS011;21411;50.024;19.220;2023-06-10T05:59:15;19.00;;;17.50;;
35290;SDS011;21411;50.024;19.220;2023-06-10T06:01:41;15.60;;;14.20;;
35290;SDS011;21411;50.024;19.220;2023-06-10T06:04:08;14.60;;;13.20;;
35290;SDS011;21411;50.024;19.220;2023-06-10T06:06:34;13.00;;;11.60;;
35290;SDS011;21411;50.024;19.220;2023-06-10T06:09:01;12.80;;;11.60;;
35290;SDS011;21411;50.024;19.220;2023-06-10T06:11:28;11.70;;;10.70;;
35290;SDS011;21411;50.024;19.220;2023-06-10T06:13:55;12.80;;;11.60;;
35290;SDS011;21411;50.024;19.220;2023-06-10T06:16:22;12.50;;;11.10;;
35290;SDS011;21411;50.024;19.220;2023-06-10T06:18:48;11.20;;;10.30;;
35290;SDS011;21411;50.024;19.220;2023-06-10T06:21:15;11.00;;;9.90;;
35290;SDS011;21411;50.024;19.220;2023-06-10T06:23:41;11.70;;;10.70;;
35290;SDS011;21411;50.024;19.220;2023-06-10T06:26:08;11.20;;;10.20;;
35290;SDS011;21411;50.024;19.220;2023-06-10T06:28:34;11.00;;;10.10;;
35290;SDS011;21411;50.024;19.220;2023-06-10T06:31:01;11.20;;;10.30;;
35290;SDS011;21411;50.024;19.220;2023-06-10T06:33:28;11.80;;;10.20;;
35290;SDS011;21411;50.024;19.220;2023-06-10T06:35:54;11.40;;;10.30;;
35290;SDS011;21411;50.024;19.220;2023-06-10T06:38:21;11.30;;;10.40;;
35290;SDS011;21411;50.024;19.220;2023-06-10T06:40:48;10.50;;;9.40;;
35290;SDS011;21411;50.024;19.220;2023-06-10T06:43:14;9.90;;;9.10;;
35290;SDS011;21411;50.024;19.220;2023-06-10T06:45:41;9.80;;;8.90;;
35290;SDS011;21411;50.024;19.220;2023-06-10T06:48:08;9.00;;;8.20;;
35290;SDS011;21411;50.024;19.220;2023-06-10T06:50:34;9.70;;;8.70;;
35290;SDS011;21411;50.024;19.220;2023-06-10T06:53:01;10.10;;;9.30;;
35290;SDS011;21411;50.024;19.220;2023-06-10T06:55:27;9.60;;;8.60;;
35290;SDS011;21411;50.024;19.220;2023-06-10T06:57:54;9.70;;;8.70;;
35290;SDS011;21411;50.024;19.220;2023-06-10T07:00:21;10.60;;;8.60;;
35290;SDS011;21411;50.024;19.220;2023-06-10T07:02:48;8.30;;;7.60;;
35290;SDS011;21411;50.024;19.220;2023-06-10T07:05:14;8.50;;;7.80;;
35290;SDS011;21411;50.024;19.220;2023-06-10T07:07:41;9.30;;;8.00;;
35290;SDS011;21411;50.024;19.220;2023-06-10T07:10:07;8.50;;;7.70;;
35290;SDS011;21411;50.024;19.220;2023-06-10T07:12:34;9.50;;;7.40;;
35290;SDS011;21411;50.024;19.220;2023-06-10T07:15:01;8.00;;;7.20;;
35290;SDS011;21411;50.024;19.220;2023-06-10T07:17:27;7.30;;;6.60;;
35290;SDS011;21411;50.024;19.220;2023-06-10T07:19:54;7.60;;;6.90;;
35290;SDS011;21411;50.024;19.220;2023-06-10T07:22:23;7.90;;;7.10;;
35290;SDS011;21411;50.024;19.220;2023-06-10T07:24:49;8.20;;;7.50;;
35290;SDS011;21411;50.024;19.220;2023-06-10T07:27:17;7.10;;;6.40;;
35290;SDS011;21411;50.024;19.220;2023-06-10T07:29:44;7.30;;;6.70;;
35290;SDS011;21411;50.024;19.220;2023-06-10T07:32:11;7.60;;;6.90;;
35290;SDS011;21411;50.024;19.220;2023-06-10T07:34:37;7.30;;;6.70;;
35290;SDS011;21411;50.024;19.220;2023-06-10T07:37:04;7.70;;;7.00;;
35290;SDS011;21411;50.024;19.220;2023-06-10T07:39:31;7.80;;;6.30;;
35290;SDS011;21411;50.024;19.220;2023-06-10T07:41:57;7.90;;;7.10;;
35290;SDS011;21411;50.024;19.220;2023-06-10T07:44:24;8.40;;;7.10;;
35290;SDS011;21411;50.024;19.220;2023-06-10T07:46:50;7.80;;;7.20;;
35290;SDS011;21411;50.024;19.220;2023-06-10T07:49:17;9.10;;;6.50;;
35290;SDS011;21411;50.024;19.220;2023-06-10T07:51:43;6.90;;;6.30;;
35290;SDS011;21411;50.024;19.220;2023-06-10T07:54:10;7.90;;;7.10;;
35290;SDS011;21411;50.024;19.220;2023-06-10T07:56:38;6.10;;;5.50;;
35290;SDS011;21411;50.024;19.220;2023-06-10T07:59:05;7.60;;;6.00;;
35290;SDS011;21411;50.024;19.220;2023-06-10T08:01:32;6.40;;;5.90;;
35290;SDS011;21411;50.024;19.220;2023-06-10T08:03:59;7.30;;;5.80;;
35290;SDS011;21411;50.024;19.220;2023-06-10T08:06:25;9.00;;;6.20;;
35290;SDS011;21411;50.024;19.220;2023-06-10T08:08:52;6.50;;;5.70;;
35290;SDS011;21411;50.024;19.220;2023-06-10T08:11:18;6.60;;;5.90;;
35290;SDS011;21411;50.024;19.220;2023-06-10T08:13:45;6.90;;;6.20;;
35290;SDS011;21411;50.024;19.220;2023-06-10T08:16:11;6.40;;;5.80;;
35290;SDS011;21411;50.024;19.220;2023-06-10T08:18:38;7.00;;;6.50;;
35290;SDS011;21411;50.024;19.220;2023-06-10T08:21:04;7.40;;;6.50;;
35290;SDS011;21411;50.024;19.220;2023-06-10T08:23:31;7.30;;;6.70;;
35290;SDS011;21411;50.024;19.220;2023-06-10T08:25:57;7.50;;;6.90;;
35290;SDS011;21411;50.024;19.220;2023-06-10T08:28:24;8.40;;;7.50;;
35290;SDS011;21411;50.024;19.220;2023-06-10T08:30:51;8.30;;;7.40;;
35290;SDS011;21411;50.024;19.220;2023-06-10T08:33:18;11.00;;;8.10;;
35290;SDS011;21411;50.024;19.220;2023-06-10T08:35:44;7.60;;;7.00;;
35290;SDS011;21411;50.024;19.220;2023-06-10T08:38:11;8.40;;;7.60;;
35290;SDS011;21411;50.024;19.220;2023-06-10T08:40:38;8.20;;;7.50;;
35290;SDS011;21411;50.024;19.220;2023-06-10T08:43:08;7.70;;;7.00;;
35290;SDS011;21411;50.024;19.220;2023-06-10T08:45:43;8.90;;;6.70;;
35290;SDS011;21411;50.024;19.220;2023-06-10T08:48:15;17.50;;;8.70;;
35290;SDS011;21411;50.024;19.220;2023-06-10T08:50:43;6.20;;;5.80;;
35290;SDS011;21411;50.024;19.220;2023-06-10T08:53:10;7.70;;;7.10;;
35290;SDS011;21411;50.024;19.220;2023-06-10T08:55:43;8.00;;;7.10;;
35290;SDS011;21411;50.024;19.220;2023-06-10T08:58:12;14.80;;;8.10;;
35290;SDS011;21411;50.024;19.220;2023-06-10T09:00:39;10.30;;;8.20;;
35290;SDS011;21411;50.024;19.220;2023-06-10T09:03:06;7.50;;;6.80;;
35290;SDS011;21411;50.024;19.220;2023-06-10T09:05:35;9.10;;;8.10;;
35290;SDS011;21411;50.024;19.220;2023-06-10T09:08:07;7.50;;;6.70;;
35290;SDS011;21411;50.024;19.220;2023-06-10T09:10:35;7.60;;;6.90;;
35290;SDS011;21411;50.024;19.220;2023-06-10T09:13:02;7.20;;;6.50;;
35290;SDS011;21411;50.024;19.220;2023-06-10T09:15:28;7.40;;;6.70;;
35290;SDS011;21411;50.024;19.220;2023-06-10T09:17:55;7.60;;;6.90;;
35290;SDS011;21411;50.024;19.220;2023-06-10T09:20:22;7.50;;;6.40;;
35290;SDS011;21411;50.024;19.220;2023-06-10T09:22:49;6.90;;;6.30;;
35290;SDS011;21411;50.024;19.220;2023-06-10T09:25:16;6.60;;;6.00;;
35290;SDS011;21411;50.024;19.220;2023-06-10T09:27:49;6.80;;;6.20;;
35290;SDS011;21411;50.024;19.220;2023-06-10T09:30:23;6.90;;;6.10;;
35290;SDS011;21411;50.024;19.220;2023-06-10T09:32:57;7.20;;;6.60;;
35290;SDS011;21411;50.024;19.220;2023-06-10T09:35:25;6.80;;;6.30;;
35290;SDS011;21411;50.024;19.220;2023-06-10T09:37:54;8.20;;;7.30;;
35290;SDS011;21411;50.024;19.220;2023-06-10T09:40:21;7.50;;;6.90;;
35290;SDS011;21411;50.024;19.220;2023-06-10T09:42:55;7.40;;;6.90;;
35290;SDS011;21411;50.024;19.220;2023-06-10T09:45:22;7.70;;;7.10;;
35290;SDS011;21411;50.024;19.220;2023-06-10T09:47:52;7.70;;;7.10;;
35290;SDS011;21411;50.024;19.220;2023-06-10T09:50:19;10.10;;;7.60;;
35290;SDS011;21411;50.024;19.220;2023-06-10T09:52:46;7.20;;;6.50;;
35290;SDS011;21411;50.024;19.220;2023-06-10T09:55:14;7.20;;;6.40;;
35290;SDS011;21411;50.024;19.220;2023-06-10T09:57:41;7.00;;;6.50;;
35290;SDS011;21411;50.024;19.220;2023-06-10T10:00:10;8.00;;;7.30;;
35290;SDS011;21411;50.024;19.220;2023-06-10T10:02:44;7.40;;;6.80;;
35290;SDS011;21411;50.024;19.220;2023-06-10T10:05:12;7.20;;;6.50;;
35290;SDS011;21411;50.024;19.220;2023-06-10T10:07:43;8.20;;;6.30;;
35290;SDS011;21411;50.024;19.220;2023-06-10T10:10:11;7.70;;;6.80;;
35290;SDS011;21411;50.024;19.220;2023-06-10T10:12:38;7.70;;;7.00;;
35290;SDS011;21411;50.024;19.220;2023-06-10T10:15:06;7.30;;;6.70;;
35290;SDS011;21411;50.024;19.220;2023-06-10T10:17:46;8.30;;;6.70;;
35290;SDS011;21411;50.024;19.220;2023-06-10T10:20:20;7.90;;;7.20;;
35290;SDS011;21411;50.024;19.220;2023-06-10T10:22:51;7.50;;;6.80;;
35290;SDS011;21411;50.024;19.220;2023-06-10T10:25:40;7.20;;;6.50;;
35290;SDS011;21411;50.024;19.220;2023-06-10T10:28:11;6.50;;;6.00;;
35290;SDS011;21411;50.024;19.220;2023-06-10T10:30:44;7.00;;;6.30;;
35290;SDS011;21411;50.024;19.220;2023-06-10T10:33:18;9.40;;;5.50;;
35290;SDS011;21411;50.024;19.220;2023-06-10T10:35:49;5.40;;;4.90;;
35290;SDS011;21411;50.024;19.220;2023-06-10T10:38:16;5.50;;;5.00;;
35290;SDS011;21411;50.024;19.220;2023-06-10T10:40:43;5.30;;;4.90;;
35290;SDS011;21411;50.024;19.220;2023-06-10T10:43:11;5.40;;;4.70;;
35290;SDS011;21411;50.024;19.220;2023-06-10T10:45:39;5.10;;;4.50;;
35290;SDS011;21411;50.024;19.220;2023-06-10T10:48:07;5.50;;;4.60;;
35290;SDS011;21411;50.024;19.220;2023-06-10T10:50:38;5.70;;;4.80;;
35290;SDS011;21411;50.024;19.220;2023-06-10T10:53:05;5.60;;;5.10;;
35290;SDS011;21411;50.024;19.220;2023-06-10T10:55:33;5.00;;;4.60;;
35290;SDS011;21411;50.024;19.220;2023-06-10T10:58:06;5.60;;;5.10;;
35290;SDS011;21411;50.024;19.220;2023-06-10T11:00:34;5.60;;;5.10;;
35290;SDS011;21411;50.024;19.220;2023-06-10T11:05:36;5.20;;;4.70;;
35290;SDS011;21411;50.024;19.220;2023-06-10T11:08:11;5.20;;;4.70;;
35290;SDS011;21411;50.024;19.220;2023-06-10T11:10:41;5.80;;;4.90;;
35290;SDS011;21411;50.024;19.220;2023-06-10T11:13:18;6.00;;;4.40;;
35290;SDS011;21411;50.024;19.220;2023-06-10T11:15:47;5.50;;;4.70;;
35290;SDS011;21411;50.024;19.220;2023-06-10T11:18:21;9.60;;;5.00;;
35290;SDS011;21411;50.024;19.220;2023-06-10T11:20:59;13.60;;;5.60;;
35290;SDS011;21411;50.024;19.220;2023-06-10T11:28:41;7.70;;;6.00;;
35290;SDS011;21411;50.024;19.220;2023-06-10T11:31:29;6.60;;;5.90;;
35290;SDS011;21411;50.024;19.220;2023-06-10T11:33:58;5.90;;;5.10;;
35290;SDS011;21411;50.024;19.220;2023-06-10T11:39:01;5.70;;;5.20;;
35290;SDS011;21411;50.024;19.220;2023-06-10T11:44:06;5.30;;;4.80;;
35290;SDS011;21411;50.024;19.220;2023-06-10T11:46:38;5.20;;;4.70;;
35290;SDS011;21411;50.024;19.220;2023-06-10T11:49:06;5.40;;;4.90;;
35290;SDS011;21411;50.024;19.220;2023-06-10T11:51:40;5.30;;;4.70;;
35290;SDS011;21411;50.024;19.220;2023-06-10T11:54:15;4.60;;;4.20;;
35290;SDS011;21411;50.024;19.220;2023-06-10T11:56:42;5.40;;;4.90;;
35290;SDS011;21411;50.024;19.220;2023-06-10T11:59:09;5.00;;;4.60;;
35290;SDS011;21411;50.024;19.220;2023-06-10T12:01:37;5.30;;;4.60;;
35290;SDS011;21411;50.024;19.220;2023-06-10T12:04:08;4.70;;;4.30;;
35290;SDS011;21411;50.024;19.220;2023-06-10T12:06:37;4.50;;;4.10;;
35290;SDS011;21411;50.024;19.220;2023-06-10T12:09:15;4.90;;;4.50;;
35290;SDS011;21411;50.024;19.220;2023-06-10T12:11:59;4.70;;;4.30;;
35290;SDS011;21411;50.024;19.220;2023-06-10T12:17:22;4.90;;;4.50;;
35290;SDS011;21411;50.024;19.220;2023-06-10T12:20:04;4.70;;;4.30;;
35290;SDS011;21411;50.024;19.220;2023-06-10T12:22:38;4.40;;;4.10;;
35290;SDS011;21411;50.024;19.220;2023-06-10T12:25:09;4.20;;;3.90;;
35290;SDS011;21411;50.024;19.220;2023-06-10T12:27:37;5.30;;;4.80;;
35290;SDS011;21411;50.024;19.220;2023-06-10T12:30:05;5.80;;;4.40;;
35290;SDS011;21411;50.024;19.220;2023-06-10T12:35:03;5.20;;;4.50;;
35290;SDS011;21411;50.024;19.220;2023-06-10T12:37:31;4.60;;;4.20;;
35290;SDS011;21411;50.024;19.220;2023-06-10T12:40:00;4.40;;;4.00;;
35290;SDS011;21411;50.024;19.220;2023-06-10T12:42:32;4.70;;;4.30;;
35290;SDS011;21411;50.024;19.220;2023-06-10T12:45:02;4.40;;;4.10;;
35290;SDS011;21411;50.024;19.220;2023-06-10T12:47:30;4.70;;;4.00;;
35290;SDS011;21411;50.024;19.220;2023-06-10T12:50:02;4.80;;;4.30;;
35290;SDS011;21411;50.024;19.220;2023-06-10T12:52:30;5.80;;;4.40;;
35290;SDS011;21411;50.024;19.220;2023-06-10T12:54:56;4.10;;;3.80;;
35290;SDS011;21411;50.024;19.220;2023-06-10T12:57:24;4.00;;;3.70;;
35290;SDS011;21411;50.024;19.220;2023-06-10T12:59:51;4.50;;;4.10;;
35290;SDS011;21411;50.024;19.220;2023-06-10T13:02:19;4.70;;;4.30;;
35290;SDS011;21411;50.024;19.220;2023-06-10T13:04:46;4.20;;;3.90;;
35290;SDS011;21411;50.024;19.220;2023-06-10T13:07:14;4.30;;;3.90;;
35290;SDS011;21411;50.024;19.220;2023-06-10T13:09:41;5.40;;;4.40;;
35290;SDS011;21411;50.024;19.220;2023-06-10T13:12:08;4.20;;;3.90;;
35290;SDS011;21411;50.024;19.220;2023-06-10T13:14:36;4.70;;;4.30;;
35290;SDS011;21411;50.024;19.220;2023-06-10T13:17:04;4.40;;;4.00;;
35290;SDS011;21411;50.024;19.220;2023-06-10T13:19:33;4.40;;;4.10;;
35290;SDS011;21411;50.024;19.220;2023-06-10T13:22:00;4.60;;;4.20;;
35290;SDS011;21411;50.024;19.220;2023-06-10T13:24:28;4.50;;;4.20;;
35290;SDS011;21411;50.024;19.220;2023-06-10T13:26:54;4.40;;;4.10;;
35290;SDS011;21411;50.024;19.220;2023-06-10T13:29:22;4.40;;;4.00;;
35290;SDS011;21411;50.024;19.220;2023-06-10T13:31:49;4.30;;;4.00;;
35290;SDS011;21411;50.024;19.220;2023-06-10T13:34:15;4.90;;;4.30;;
35290;SDS011;21411;50.024;19.220;2023-06-10T13:36:42;4.30;;;4.00;;
35290;SDS011;21411;50.024;19.220;2023-06-10T13:39:09;4.90;;;4.50;;
35290;SDS011;21411;50.024;19.220;2023-06-10T13:41:35;4.70;;;4.30;;
35290;SDS011;21411;50.024;19.220;2023-06-10T13:44:02;4.30;;;3.90;;
35290;SDS011;21411;50.024;19.220;2023-06-10T13:46:28;4.30;;;4.00;;
35290;SDS011;21411;50.024;19.220;2023-06-10T13:48:55;4.80;;;4.40;;
35290;SDS011;21411;50.024;19.220;2023-06-10T13:51:22;6.10;;;4.80;;
35290;SDS011;21411;50.024;19.220;2023-06-10T13:53:48;4.90;;;4.40;;
35290;SDS011;21411;50.024;19.220;2023-06-10T13:56:16;6.00;;;4.20;;
35290;SDS011;21411;50.024;19.220;2023-06-10T13:58:44;4.40;;;4.20;;
35290;SDS011;21411;50.024;19.220;2023-06-10T14:01:11;4.40;;;4.20;;
35290;SDS011;21411;50.024;19.220;2023-06-10T14:03:38;5.00;;;4.30;;
35290;SDS011;21411;50.024;19.220;2023-06-10T14:06:04;4.60;;;3.70;;
35290;SDS011;21411;50.024;19.220;2023-06-10T14:08:31;4.20;;;3.90;;
35290;SDS011;21411;50.024;19.220;2023-06-10T14:10:58;4.40;;;3.90;;
35290;SDS011;21411;50.024;19.220;2023-06-10T14:13:25;4.00;;;3.70;;
35290;SDS011;21411;50.024;19.220;2023-06-10T14:15:51;3.70;;;3.50;;
35290;SDS011;21411;50.024;19.220;2023-06-10T14:18:19;4.10;;;3.70;;
35290;SDS011;21411;50.024;19.220;2023-06-10T14:20:46;5.10;;;4.10;;
35290;SDS011;21411;50.024;19.220;2023-06-10T14:23:12;4.20;;;3.80;;
35290;SDS011;21411;50.024;19.220;2023-06-10T14:25:39;4.30;;;4.00;;
35290;SDS011;21411;50.024;19.220;2023-06-10T14:28:05;4.40;;;4.10;;
35290;SDS011;21411;50.024;19.220;2023-06-10T14:30:32;4.60;;;4.20;;
35290;SDS011;21411;50.024;19.220;2023-06-10T14:32:58;4.60;;;4.00;;
35290;SDS011;21411;50.024;19.220;2023-06-10T14:35:25;4.30;;;4.00;;
35290;SDS011;21411;50.024;19.220;2023-06-10T14:37:52;4.40;;;4.10;;
35290;SDS011;21411;50.024;19.220;2023-06-10T14:40:18;5.50;;;4.00;;
35290;SDS011;21411;50.024;19.220;2023-06-10T14:42:47;4.20;;;3.90;;
35290;SDS011;21411;50.024;19.220;2023-06-10T14:45:14;4.50;;;4.10;;
35290;SDS011;21411;50.024;19.220;2023-06-10T14:47:41;4.20;;;3.80;;